Time,TemperatureF,DewpointF,PressureIn,WindDirection,WindDirectionDegrees,WindSpeedMPH,WindSpeedGustMPH,Humidity,HourlyPrecipIn,Conditions,Clouds,dailyrainin,SoftwareType,DateUTC
2013-01-07 00:20:00,50.8,50.0,30.19,NW,309,0.0,0.0,95,0.00,,,0.00,weatherlink.com 1.10,2013-01-07 05:20:00,
2013-01-07 00:35:00,50.8,50.0,30.20,NW,309,0.0,0.0,95,0.00,,,0.00,weatherlink.com 1.10,2013-01-07 05:35:00,
2013-01-07 00:50:00,50.9,50.0,30.20,NW,309,0.0,1.0,95,0.00,,,0.00,weatherlink.com 1.10,2013-01-07 05:50:00,
2013-01-07 01:06:00,51.0,50.0,30.20,NW,309,0.0,3.0,95,0.00,,,0.00,weatherlink.com 1.10,2013-01-07 06:06:00,
2013-01-07 01:21:00,50.9,50.0,30.20,NW,317,0.0,4.0,95,0.00,,,0.00,weatherlink.com 1.10,2013-01-07 06:21:00,
2013-01-07 01:36:00,50.9,50.0,30.19,NW,317,1.0,3.0,95,0.00,,,0.00,weatherlink.com 1.10,2013-01-07 06:36:00,
2013-01-07 01:51:00,50.9,50.0,30.19,NNW,341,0.0,6.0,95,0.00,,,0.00,weatherlink.com 1.10,2013-01-07 06:51:00,
2013-01-07 02:06:00,50.9,50.0,30.19,North,355,2.0,5.0,95,0.00,,,0.00,weatherlink.com 1.10,2013-01-07 07:06:00,
2013-01-07 02:21:00,50.8,50.0,30.19,NNW,340,3.0,7.0,95,0.00,,,0.00,weatherlink.com 1.10,2013-01-07 07:21:00,
2013-01-07 02:36:00,50.6,49.0,30.19,NNE,25,1.0,9.0,95,0.00,,,0.00,weatherlink.com 1.10,2013-01-07 07:36:00,
2013-01-07 02:51:00,50.3,49.0,30.20,North,5,3.0,8.0,94,0.00,,,0.00,weatherlink.com 1.10,2013-01-07 07:51:00,
2013-01-07 03:06:00,50.2,49.0,30.20,NNW,328,7.0,12.0,94,0.00,,,0.00,weatherlink.com 1.10,2013-01-07 08:06:00,
2013-01-07 03:21:00,50.0,48.0,30.20,NNW,342,5.0,13.0,93,0.00,,,0.00,weatherlink.com 1.10,2013-01-07 08:21:00,
2013-01-07 03:36:00,49.8,48.0,30.20,NNW,327,2.0,13.0,92,0.00,,,0.00,weatherlink.com 1.10,2013-01-07 08:36:00,
2013-01-07 03:51:00,49.5,47.0,30.19,North,5,7.0,11.0,92,0.00,,,0.00,weatherlink.com 1.10,2013-01-07 08:51:00,
2013-01-07 04:06:00,49.3,47.0,30.20,North,360,3.0,9.0,92,0.00,,,0.00,weatherlink.com 1.10,2013-01-07 09:06:00,
2013-01-07 04:21:00,49.0,47.0,30.20,NNE,19,1.0,9.0,91,0.00,,,0.00,weatherlink.com 1.10,2013-01-07 09:21:00,
2013-01-07 04:36:00,48.6,46.0,30.20,North,360,0.0,11.0,91,0.00,,,0.00,weatherlink.com 1.10,2013-01-07 09:36:00,
2013-01-07 04:51:00,48.2,46.0,30.20,North,349,1.0,9.0,91,0.00,,,0.00,weatherlink.com 1.10,2013-01-07 09:51:00,
2013-01-07 05:06:00,47.9,46.0,30.20,NNE,28,3.0,9.0,91,0.00,,,0.00,weatherlink.com 1.10,2013-01-07 10:06:00,
2013-01-07 05:21:00,47.5,45.0,30.21,NNW,327,2.0,8.0,91,0.00,,,0.00,weatherlink.com 1.10,2013-01-07 10:21:00,
2013-01-07 05:36:00,47.1,45.0,30.22,North,9,5.0,7.0,91,0.00,,,0.00,weatherlink.com 1.10,2013-01-07 10:36:00,
2013-01-07 05:51:00,46.8,44.0,30.22,North,360,1.0,7.0,91,0.00,,,0.00,weatherlink.com 1.10,2013-01-07 10:51:00,
2013-01-07 06:06:00,46.8,45.0,30.23,North,11,4.0,6.0,92,0.00,,,0.00,weatherlink.com 1.10,2013-01-07 11:06:00,
2013-01-07 06:21:00,46.8,45.0,30.23,NNE,14,5.0,8.0,92,0.00,,,0.00,weatherlink.com 1.10,2013-01-07 11:21:00,
2013-01-07 06:36:00,46.7,44.0,30.23,NNE,15,1.0,7.0,91,0.00,,,0.00,weatherlink.com 1.10,2013-01-07 11:36:00,
2013-01-07 06:51:00,46.7,44.0,30.23,North,360,0.0,9.0,91,0.00,,,0.00,weatherlink.com 1.10,2013-01-07 11:51:00,
2013-01-07 07:06:00,46.5,44.0,30.24,North,360,1.0,8.0,91,0.00,,,0.00,weatherlink.com 1.10,2013-01-07 12:06:00,
2013-01-07 07:21:00,46.5,44.0,30.25,NNE,15,4.0,8.0,91,0.00,,,0.00,weatherlink.com 1.10,2013-01-07 12:21:00,
2013-01-07 07:36:00,46.6,44.0,30.24,NNE,13,0.0,7.0,92,0.00,,,0.00,weatherlink.com 1.10,2013-01-07 12:36:00,
2013-01-07 07:51:00,46.8,45.0,30.26,NNW,339,2.0,5.0,92,0.00,,,0.00,weatherlink.com 1.10,2013-01-07 12:51:00,
2013-01-07 08:06:00,47.0,45.0,30.26,North,360,1.0,4.0,92,0.00,,,0.00,weatherlink.com 1.10,2013-01-07 13:06:00,
2013-01-07 08:21:00,47.3,45.0,30.25,NNE,25,3.0,6.0,92,0.00,,,0.00,weatherlink.com 1.10,2013-01-07 13:21:00,
2013-01-07 08:36:00,48.1,46.0,30.27,North,349,1.0,4.0,93,0.00,,,0.00,weatherlink.com 1.10,2013-01-07 13:36:00,
2013-01-07 08:51:00,49.1,47.0,30.26,North,9,3.0,5.0,93,0.00,,,0.00,weatherlink.com 1.10,2013-01-07 13:51:00,
2013-01-07 09:06:00,51.3,49.0,30.27,North,5,8.0,11.0,92,0.00,,,0.00,weatherlink.com 1.10,2013-01-07 14:06:00,
2013-01-07 09:22:00,53.3,50.0,30.28,NE,41,6.0,12.0,88,0.00,,,0.00,weatherlink.com 1.10,2013-01-07 14:22:00,
2013-01-07 09:37:00,55.8,52.0,30.29,NE,49,11.0,14.0,86,0.00,,,0.00,weatherlink.com 1.10,2013-01-07 14:37:00,
2013-01-07 09:52:00,55.8,51.0,30.29,NNE,22,7.0,12.0,85,0.00,,,0.00,weatherlink.com 1.10,2013-01-07 14:52:00,
2013-01-07 10:07:00,57.8,53.0,30.28,NE,54,3.0,13.0,84,0.00,,,0.00,weatherlink.com 1.10,2013-01-07 15:07:00,
2013-01-07 10:22:00,57.9,52.0,30.29,NE,34,3.0,15.0,82,0.00,,,0.00,weatherlink.com 1.10,2013-01-07 15:22:00,
2013-01-07 10:37:00,58.7,53.0,30.29,North,5,3.0,14.0,82,0.00,,,0.00,weatherlink.com 1.10,2013-01-07 15:37:00,
2013-01-07 10:52:00,58.6,53.0,30.29,ENE,63,8.0,13.0,82,0.00,,,0.00,weatherlink.com 1.10,2013-01-07 15:52:00,
2013-01-07 11:07:00,59.5,54.0,30.28,NE,55,10.0,12.0,81,0.00,,,0.00,weatherlink.com 1.10,2013-01-07 16:07:00,
2013-01-07 11:22:00,59.2,54.0,30.29,NE,38,8.0,15.0,82,0.00,,,0.00,weatherlink.com 1.10,2013-01-07 16:22:00,
2013-01-07 11:37:00,60.7,55.0,30.28,NE,44,6.0,15.0,80,0.00,,,0.00,weatherlink.com 1.10,2013-01-07 16:37:00,
2013-01-07 11:52:00,60.9,55.0,30.27,North,5,7.0,14.0,80,0.00,,,0.00,weatherlink.com 1.10,2013-01-07 16:52:00,
2013-01-07 12:07:00,61.5,55.0,30.26,NNE,15,12.0,13.0,80,0.00,,,0.00,weatherlink.com 1.10,2013-01-07 17:07:00,
2013-01-07 12:22:00,61.3,54.0,30.26,NNE,33,11.0,14.0,78,0.00,,,0.00,weatherlink.com 1.10,2013-01-07 17:22:00,
2013-01-07 12:37:00,62.2,55.0,30.25,North,5,8.0,13.0,77,0.00,,,0.00,weatherlink.com 1.10,2013-01-07 17:37:00,
2013-01-07 12:52:00,62.6,56.0,30.25,NW,323,2.0,9.0,79,0.00,,,0.00,weatherlink.com 1.10,2013-01-07 17:52:00,
2013-01-07 13:07:00,62.7,55.0,30.23,NE,37,7.0,14.0,77,0.00,,,0.00,weatherlink.com 1.10,2013-01-07 18:07:00,
2013-01-07 13:22:00,62.2,55.0,30.24,NE,36,4.0,12.0,78,0.00,,,0.00,weatherlink.com 1.10,2013-01-07 18:22:00,
2013-01-07 13:37:00,63.1,57.0,30.23,NNE,14,7.0,14.0,80,0.00,,,0.00,weatherlink.com 1.10,2013-01-07 18:37:00,
2013-01-07 13:52:00,65.0,57.0,30.23,NNE,31,6.0,16.0,75,0.00,,,0.00,weatherlink.com 1.10,2013-01-07 18:52:00,
2013-01-07 14:07:00,64.4,57.0,30.23,NNE,31,8.0,16.0,76,0.00,,,0.00,weatherlink.com 1.10,2013-01-07 19:07:00,
2013-01-07 14:22:00,65.2,56.0,30.23,NE,44,3.0,14.0,73,0.00,,,0.00,weatherlink.com 1.10,2013-01-07 19:22:00,
2013-01-07 14:37:00,65.7,57.0,30.23,ENE,69,4.0,17.0,74,0.00,,,0.00,weatherlink.com 1.10,2013-01-07 19:37:00,
2013-01-07 14:52:00,66.1,58.0,30.24,NE,42,6.0,12.0,74,0.00,,,0.00,weatherlink.com 1.10,2013-01-07 19:52:00,
2013-01-07 15:07:00,64.9,56.0,30.24,ENE,63,9.0,17.0,74,0.00,,,0.00,weatherlink.com 1.10,2013-01-07 20:07:00,
2013-01-07 15:22:00,64.4,55.0,30.24,NNE,17,8.0,20.0,72,0.00,,,0.00,weatherlink.com 1.10,2013-01-07 20:22:00,
2013-01-07 15:37:00,64.3,55.0,30.24,NE,55,17.0,18.0,71,0.00,,,0.00,weatherlink.com 1.10,2013-01-07 20:37:00,
2013-01-07 15:52:00,63.9,55.0,30.25,North,351,4.0,12.0,74,0.00,,,0.00,weatherlink.com 1.10,2013-01-07 20:52:00,
2013-01-07 16:07:00,62.3,55.0,30.25,NE,42,15.0,19.0,76,0.00,,,0.00,weatherlink.com 1.10,2013-01-07 21:07:00,
2013-01-07 16:22:00,61.1,55.0,30.25,NE,34,4.0,18.0,79,0.00,,,0.00,weatherlink.com 1.10,2013-01-07 21:22:00,
2013-01-07 16:37:00,60.4,54.0,30.24,NNE,30,12.0,17.0,80,0.00,,,0.00,weatherlink.com 1.10,2013-01-07 21:37:00,
2013-01-07 16:52:00,59.2,54.0,30.25,NE,36,7.0,13.0,82,0.00,,,0.00,weatherlink.com 1.10,2013-01-07 21:52:00,
2013-01-07 17:07:00,58.2,53.0,30.24,NNE,26,4.0,16.0,84,0.00,,,0.00,weatherlink.com 1.10,2013-01-07 22:07:00,
2013-01-07 17:22:00,57.5,53.0,30.25,NE,38,8.0,15.0,85,0.00,,,0.00,weatherlink.com 1.10,2013-01-07 22:22:00,
2013-01-07 17:37:00,57.0,53.0,30.25,NNE,22,1.0,18.0,87,0.00,,,0.00,weatherlink.com 1.10,2013-01-07 22:37:00,
2013-01-07 17:52:00,56.6,53.0,30.25,NE,41,8.0,11.0,88,0.00,,,0.00,weatherlink.com 1.10,2013-01-07 22:52:00,
2013-01-07 18:07:00,56.5,53.0,30.25,NNE,12,4.0,11.0,88,0.00,,,0.00,weatherlink.com 1.10,2013-01-07 23:07:00,
2013-01-07 18:22:00,56.3,53.0,30.25,NNE,13,7.0,9.0,89,0.00,,,0.00,weatherlink.com 1.10,2013-01-07 23:22:00,
2013-01-07 18:37:00,56.7,54.0,30.26,NE,39,9.0,13.0,89,0.00,,,0.00,weatherlink.com 1.10,2013-01-07 23:37:00,
2013-01-07 18:52:00,57.2,53.0,30.26,NE,46,2.0,14.0,87,0.00,,,0.00,weatherlink.com 1.10,2013-01-07 23:52:00,
2013-01-07 19:07:00,57.6,54.0,30.26,NNE,19,3.0,14.0,87,0.00,,,0.00,weatherlink.com 1.10,2013-01-08 00:07:00,
2013-01-07 19:22:00,57.8,54.0,30.26,NE,35,3.0,14.0,87,0.00,,,0.00,weatherlink.com 1.10,2013-01-08 00:22:00,
2013-01-07 19:37:00,57.9,54.0,30.26,NNE,18,2.0,13.0,87,0.00,,,0.00,weatherlink.com 1.10,2013-01-08 00:37:00,
2013-01-07 19:52:00,57.9,54.0,30.26,NE,38,2.0,15.0,87,0.00,,,0.00,weatherlink.com 1.10,2013-01-08 00:52:00,
2013-01-07 20:07:00,57.9,54.0,30.26,ENE,63,8.0,11.0,87,0.00,,,0.00,weatherlink.com 1.10,2013-01-08 01:07:00,
2013-01-07 20:23:00,58.1,54.0,30.26,North,5,8.0,13.0,87,0.00,,,0.00,weatherlink.com 1.10,2013-01-08 01:23:00,
2013-01-07 20:37:00,58.3,55.0,30.26,North,360,7.0,12.0,87,0.00,,,0.00,weatherlink.com 1.10,2013-01-08 01:37:00,
2013-01-07 20:52:00,58.4,55.0,30.26,NE,36,10.0,13.0,87,0.00,,,0.00,weatherlink.com 1.10,2013-01-08 01:52:00,
2013-01-07 21:07:00,58.4,55.0,30.26,NE,37,5.0,10.0,87,0.00,,,0.00,weatherlink.com 1.10,2013-01-08 02:07:00,
2013-01-07 21:23:00,58.4,55.0,30.25,ENE,59,2.0,12.0,87,0.00,,,0.00,weatherlink.com 1.10,2013-01-08 02:23:00,
2013-01-07 21:38:00,58.5,55.0,30.25,NNE,32,5.0,10.0,87,0.00,,,0.00,weatherlink.com 1.10,2013-01-08 02:38:00,
2013-01-07 21:53:00,58.8,55.0,30.25,NE,40,8.0,11.0,87,0.00,,,0.00,weatherlink.com 1.10,2013-01-08 02:53:00,
2013-01-07 22:08:00,59.1,55.0,30.25,NNE,25,5.0,10.0,86,0.00,,,0.00,weatherlink.com 1.10,2013-01-08 03:08:00,
2013-01-07 22:23:00,59.2,55.0,30.25,NE,34,5.0,9.0,86,0.00,,,0.00,weatherlink.com 1.10,2013-01-08 03:23:00,
2013-01-07 22:38:00,59.3,55.0,30.25,NNE,27,0.0,10.0,86,0.00,,,0.00,weatherlink.com 1.10,2013-01-08 03:38:00,
2013-01-07 22:53:00,59.3,56.0,30.25,NNE,17,3.0,5.0,87,0.00,,,0.00,weatherlink.com 1.10,2013-01-08 03:53:00,
2013-01-07 23:08:00,59.0,56.0,30.25,NE,42,2.0,5.0,88,0.00,,,0.00,weatherlink.com 1.10,2013-01-08 04:08:00,
2013-01-07 23:23:00,58.7,56.0,30.24,NNE,22,2.0,8.0,89,0.00,,,0.00,weatherlink.com 1.10,2013-01-08 04:23:00,
2013-01-07 23:38:00,58.4,55.0,30.23,NE,40,7.0,8.0,89,0.00,,,0.00,weatherlink.com 1.10,2013-01-08 04:38:00,
2013-01-07 23:53:00,58.4,56.0,30.23,ENE,60,1.0,7.0,90,0.00,,,0.00,weatherlink.com 1.10,2013-01-08 04:53:00,